Time;durP1;ratioP1;P1;durP2;ratioP2;P2;SDS_P1;SDS_P2;PMS_P1;PMS_P2;Temp;Humidity;BMP_temperature;BMP_pressure;BME280_temperature;BME280_humidity;BME280_pressure;Samples;Min_cycle;Max_cycle;Signal;HPM_P1;HPM_P2
2021/06/17 00:00:41;;;;;;;5.43;3.30;;;;;;;23.06;49.27;95444.53;5006985;28;20207;-85
2021/06/17 00:03:09;;;;;;;5.18;3.85;;;;;;;23.05;49.46;95445.59;5007104;28;20253;-86
2021/06/17 00:05:37;;;;;;;3.80;3.42;;;;;;;23.06;48.99;95446.38;5007894;28;20205;-85
2021/06/17 00:08:04;;;;;;;4.25;3.70;;;;;;;23.04;49.65;95451.09;5007500;28;20211;-86
2021/06/17 00:10:35;;;;;;;3.75;3.42;;;;;;;22.99;49.52;95441.34;5005348;28;20219;-86
2021/06/17 00:13:04;;;;;;;3.67;3.28;;;;;;;23.00;49.34;95448.19;5006349;28;20223;-84
2021/06/17 00:15:32;;;;;;;3.65;3.35;;;;;;;22.95;49.09;95439.50;5005228;28;20208;-86
2021/06/17 00:17:59;;;;;;;3.90;3.53;;;;;;;22.98;48.74;95441.59;4995659;28;20207;-86
2021/06/17 00:20:27;;;;;;;4.03;3.50;;;;;;;22.86;49.61;95441.84;5011961;28;20253;-86
2021/06/17 00:22:54;;;;;;;6.03;3.70;;;;;;;22.86;49.03;95441.84;5014318;28;20226;-86
2021/06/17 00:25:21;;;;;;;5.22;3.78;;;;;;;22.78;49.74;95450.19;5014791;28;20674;-86
2021/06/17 00:27:49;;;;;;;3.88;3.50;;;;;;;22.69;49.89;95443.84;5014980;28;20199;-86
2021/06/17 00:30:16;;;;;;;3.97;3.67;;;;;;;22.64;50.38;95451.69;5014415;28;20456;-86
2021/06/17 00:32:43;;;;;;;3.67;3.38;;;;;;;22.65;50.36;95448.00;5013191;28;20230;-85
2021/06/17 00:35:11;;;;;;;4.20;3.80;;;;;;;22.68;49.96;95443.03;5014320;28;20265;-86
2021/06/17 00:37:39;;;;;;;4.18;3.50;;;;;;;22.71;50.06;95447.75;5014680;28;20621;-86
2021/06/17 00:40:08;;;;;;;3.90;3.53;;;;;;;22.70;50.09;95440.16;5004304;28;20206;-86
2021/06/17 00:42:36;;;;;;;4.65;4.10;;;;;;;22.68;49.89;95440.41;4994045;28;20242;-86
2021/06/17 00:45:05;;;;;;;3.90;3.60;;;;;;;22.65;50.15;95438.31;4994580;28;20206;-86
2021/06/17 00:47:32;;;;;;;3.80;3.40;;;;;;;22.58;50.74;95432.47;4993999;28;20199;-86
2021/06/17 00:49:58;;;;;;;3.72;3.42;;;;;;;22.57;50.11;95430.91;4995058;28;20694;-86
2021/06/17 00:52:25;;;;;;;5.72;3.45;;;;;;;22.54;50.89;95430.63;4994423;28;20230;-85
2021/06/17 00:54:51;;;;;;;4.07;3.75;;;;;;;22.42;51.24;95428.22;4994702;28;20206;-86
2021/06/17 00:57:18;;;;;;;3.70;3.40;;;;;;;22.38;51.31;95427.91;4994605;28;20211;-87
2021/06/17 00:59:44;;;;;;;5.43;3.83;;;;;;;22.34;51.41;95428.66;4994532;28;20620;-86
2021/06/17 01:02:12;;;;;;;4.25;3.83;;;;;;;22.32;51.19;95426.31;4993529;28;20249;-86
2021/06/17 01:04:39;;;;;;;5.22;3.80;;;;;;;22.28;51.71;95424.47;4994158;28;20696;-86
2021/06/17 01:07:06;;;;;;;3.90;3.60;;;;;;;22.13;52.49;95432.25;4994211;28;20199;-86
2021/06/17 01:09:46;;;;;;;5.05;4.18;;;;;;;22.11;52.63;95429.88;4994512;28;20207;-86
2021/06/17 01:12:25;;;;;;;3.88;3.47;;;;;;;22.18;52.19;95429.63;4993849;28;20227;-86
2021/06/17 01:14:57;;;;;;;3.67;3.40;;;;;;;22.32;51.65;95428.91;4994101;28;20199;-85
2021/06/17 01:17:27;;;;;;;5.60;3.67;;;;;;;22.34;51.83;95426.84;4994444;28;20271;-86
2021/06/17 01:20:04;;;;;;;3.95;3.47;;;;;;;22.22;52.35;95430.72;4998531;28;20200;-86
2021/06/17 01:22:39;;;;;;;4.25;3.72;;;;;;;22.28;51.53;95416.59;4993586;28;20219;-86
2021/06/17 01:25:14;;;;;;;4.03;3.55;;;;;;;22.17;52.49;95418.34;4993883;28;20203;-85
2021/06/17 01:28:06;;;;;;;4.63;3.90;;;;;;;22.21;52.67;95416.00;4993605;28;20206;-85
2021/06/17 01:30:37;;;;;;;4.80;3.55;;;;;;;22.17;52.23;95413.09;4974279;28;20208;-85
2021/06/17 01:33:06;;;;;;;4.68;4.28;;;;;;;22.16;52.31;95415.97;4973725;28;20227;-86
2021/06/17 01:35:37;;;;;;;5.38;3.92;;;;;;;22.16;52.54;95414.13;4974281;28;20288;-83
2021/06/17 01:38:05;;;;;;;5.07;3.83;;;;;;;22.04;52.84;95413.56;4989174;28;20484;-86
2021/06/17 01:40:34;;;;;;;4.53;4.10;;;;;;;22.02;52.61;95408.56;4997447;28;20200;-84
2021/06/17 01:43:04;;;;;;;3.92;3.50;;;;;;;21.94;53.57;95406.34;4996721;28;20594;-85
2021/06/17 01:45:32;;;;;;;4.10;3.70;;;;;;;22.00;52.86;95405.38;4995804;28;20203;-86
2021/06/17 01:48:01;;;;;;;4.30;3.90;;;;;;;21.94;53.13;95400.31;4995285;28;20794;-86
2021/06/17 01:50:29;;;;;;;4.28;3.88;;;;;;;21.92;53.28;95403.22;4996984;28;20207;-86
2021/06/17 01:52:57;;;;;;;4.97;4.25;;;;;;;21.83;53.44;95401.31;4996769;28;20227;-86
2021/06/17 01:55:30;;;;;;;5.40;4.05;;;;;;;21.68;54.44;95408.03;4997510;28;20202;-84
2021/06/17 01:58:00;;;;;;;4.90;3.88;;;;;;;21.64;53.97;95399.06;4997101;28;20208;-86
2021/06/17 02:00:28;;;;;;;4.40;3.65;;;;;;;21.65;55.03;95390.16;4995903;28;20202;-86
2021/06/17 02:02:55;;;;;;;4.38;3.90;;;;;;;21.71;54.18;95391.81;4996246;28;20230;-86
2021/06/17 02:05:22;;;;;;;4.35;4.00;;;;;;;21.61;54.73;95393.53;4996369;28;20195;-86
2021/06/17 02:07:50;;;;;;;3.90;3.60;;;;;;;21.58;54.99;95389.56;4996098;28;20203;-86
2021/06/17 02:10:20;;;;;;;3.80;3.50;;;;;;;21.72;54.24;95389.97;4996264;28;20638;-86
2021/06/17 02:12:47;;;;;;;5.10;3.88;;;;;;;21.82;54.05;95387.41;4995469;28;20235;-85
2021/06/17 02:15:15;;;;;;;5.57;4.07;;;;;;;21.83;54.50;95388.19;4996430;28;20218;-85
2021/06/17 02:17:47;;;;;;;5.47;4.25;;;;;;;21.83;54.20;95391.59;4997268;28;20203;-86
2021/06/17 02:20:17;;;;;;;5.45;4.13;;;;;;;21.76;54.39;95387.63;4996005;28;20199;-85
2021/06/17 02:22:45;;;;;;;4.32;3.92;;;;;;;21.58;55.19;95379.09;4995464;28;20227;-86
2021/06/17 02:25:16;;;;;;;6.25;4.30;;;;;;;21.58;54.70;95378.31;4996176;28;20644;-86
2021/06/17 02:27:45;;;;;;;6.15;4.40;;;;;;;21.55;54.71;95381.44;4996271;28;20207;-85
2021/06/17 02:30:14;;;;;;;5.55;4.15;;;;;;;21.53;54.95;95379.09;4996037;28;20211;-86
2021/06/17 02:32:46;;;;;;;6.80;4.28;;;;;;;21.57;54.56;95381.97;4995582;28;20313;-86
2021/06/17 02:35:13;;;;;;;4.82;4.28;;;;;;;21.58;55.04;95373.06;4995608;28;20214;-86
2021/06/17 02:37:44;;;;;;;5.00;4.43;;;;;;;21.60;54.78;95382.25;4996095;28;20223;-86
2021/06/17 02:40:12;;;;;;;6.75;4.43;;;;;;;21.59;54.98;95379.88;4995854;28;20660;-86
2021/06/17 02:42:40;;;;;;;6.88;4.15;;;;;;;21.57;54.95;95379.34;4995886;28;20582;-85
2021/06/17 02:45:08;;;;;;;4.93;4.25;;;;;;;21.60;55.02;95381.47;4995787;28;20203;-86
2021/06/17 02:47:35;;;;;;;4.35;3.95;;;;;;;21.56;55.05;95380.38;4995462;28;20207;-86
2021/06/17 02:50:05;;;;;;;4.63;4.18;;;;;;;21.43;56.12;95381.59;4992524;28;20246;-85
2021/06/17 02:52:31;;;;;;;5.47;4.43;;;;;;;21.36;56.05;95375.75;4993425;28;20226;-86
2021/06/17 02:54:58;;;;;;;5.40;4.13;;;;;;;21.32;56.43;95372.09;4995599;28;20203;-86
2021/06/17 02:57:29;;;;;;;5.07;4.57;;;;;;;21.28;56.32;95363.94;4995683;28;20219;-86
2021/06/17 03:00:05;;;;;;;4.70;4.30;;;;;;;21.18;57.06;95370.84;4996064;28;20199;-86
2021/06/17 03:02:38;;;;;;;5.88;4.45;;;;;;;21.09;57.79;95364.50;4995286;28;20241;-86
2021/06/17 03:05:12;;;;;;;5.15;4.20;;;;;;;21.17;57.03;95353.56;4995620;28;20207;-83
2021/06/17 03:07:46;;;;;;;4.72;4.15;;;;;;;21.19;57.08;95357.53;5000197;28;20199;-86
2021/06/17 03:10:13;;;;;;;4.80;4.20;;;;;;;21.17;57.56;95353.56;5005618;28;20204;-86
2021/06/17 03:12:45;;;;;;;4.80;4.40;;;;;;;21.18;57.36;95353.31;5004529;28;20230;-86
2021/06/17 03:15:12;;;;;;;4.53;4.18;;;;;;;21.19;56.96;95352.28;5005313;28;20196;-85
2021/06/17 03:17:43;;;;;;;7.03;4.25;;;;;;;21.22;56.94;95356.25;5006083;28;20214;-86
2021/06/17 03:20:12;;;;;;;5.25;4.40;;;;;;;21.21;57.09;95358.09;5019906;28;20199;-85
2021/06/17 03:22:44;;;;;;;5.05;4.50;;;;;;;21.24;56.76;95356.81;5023558;28;20590;-85
2021/06/17 03:25:15;;;;;;;5.22;4.78;;;;;;;21.26;57.09;95350.28;5001557;28;20196;-86
2021/06/17 03:27:42;;;;;;;4.97;4.15;;;;;;;21.27;57.37;95354.50;4996214;28;20294;-86
2021/06/17 03:30:11;;;;;;;4.50;4.20;;;;;;;21.35;56.87;95350.63;4996046;28;20222;-86
2021/06/17 03:32:39;;;;;;;4.40;4.00;;;;;;;21.47;56.56;95366.97;4995135;28;20234;-86
2021/06/17 03:35:07;;;;;;;5.18;4.50;;;;;;;21.56;56.26;95362.84;4995915;28;20584;-86
2021/06/17 03:37:36;;;;;;;6.13;4.80;;;;;;;21.58;56.31;95365.22;4995409;28;20586;-86
2021/06/17 03:40:03;;;;;;;6.88;4.80;;;;;;;21.54;56.51;95370.19;4994881;28;20200;-85
2021/06/17 03:42:32;;;;;;;6.88;4.95;;;;;;;21.54;56.42;95372.00;4995192;28;20227;-86
2021/06/17 03:44:59;;;;;;;6.35;4.95;;;;;;;21.57;56.46;95377.50;4995569;28;20250;-86
2021/06/17 03:47:26;;;;;;;5.15;4.50;;;;;;;21.52;56.83;95374.09;4995355;28;20207;-86
2021/06/17 03:49:55;;;;;;;5.38;4.28;;;;;;;21.52;56.93;95376.72;4995525;28;20230;-86
2021/06/17 03:52:22;;;;;;;6.22;4.60;;;;;;;21.48;57.19;95383.47;4994674;28;20258;-86
2021/06/17 03:54:51;;;;;;;4.28;3.88;;;;;;;21.46;57.06;95382.94;4994908;28;20206;-86
2021/06/17 03:57:30;;;;;;;6.70;4.85;;;;;;;21.48;56.70;95383.47;4994944;28;20722;-86
2021/06/17 03:59:57;;;;;;;5.10;4.30;;;;;;;21.48;56.93;95386.88;4994951;28;20554;-86
2021/06/17 04:02:25;;;;;;;5.03;4.30;;;;;;;21.45;57.30;95382.16;4993577;28;20227;-86
2021/06/17 04:04:51;;;;;;;5.00;4.60;;;;;;;21.40;57.41;95391.78;4993731;28;20408;-85
2021/06/17 04:07:22;;;;;;;5.15;4.65;;;;;;;21.42;57.19;95389.69;4995405;28;20199;-86
2021/06/17 04:09:51;;;;;;;8.07;4.75;;;;;;;21.45;57.25;95395.25;4994881;28;20206;-86
2021/06/17 04:12:22;;;;;;;5.10;4.60;;;;;;;21.44;57.62;95395.50;4993886;28;20231;-86
2021/06/17 04:14:50;;;;;;;7.18;4.90;;;;;;;21.47;57.50;95400.22;4994556;28;20203;-86
2021/06/17 04:17:27;;;;;;;5.15;4.65;;;;;;;21.54;57.27;95406.88;4994744;28;20210;-85
2021/06/17 04:19:54;;;;;;;5.82;5.28;;;;;;;21.55;57.15;95405.78;5007089;28;20203;-86
2021/06/17 04:22:24;;;;;;;5.63;4.20;;;;;;;21.63;56.72;95413.22;4994765;28;20223;-86
2021/06/17 04:24:56;;;;;;;8.13;4.72;;;;;;;21.70;56.75;95405.94;4994403;28;20200;-86
2021/06/17 04:27:23;;;;;;;6.10;4.78;;;;;;;21.77;56.46;95402.31;4994858;28;20215;-86
2021/06/17 04:29:51;;;;;;;5.07;4.57;;;;;;;21.84;56.30;95405.50;4994692;28;20203;-86
2021/06/17 04:32:18;;;;;;;5.35;4.38;;;;;;;21.85;56.32;95404.47;4993054;28;20711;-86
2021/06/17 04:34:45;;;;;;;5.65;4.40;;;;;;;21.86;56.38;95409.47;4992539;28;20209;-87
2021/06/17 04:37:15;;;;;;;9.00;4.53;;;;;;;21.89;56.19;95408.19;4992946;28;20218;-86
2021/06/17 04:39:42;;;;;;;6.57;4.72;;;;;;;21.92;55.80;95418.16;4990127;28;20211;-87
2021/06/17 04:42:13;;;;;;;5.80;5.13;;;;;;;22.04;55.59;95411.72;4994311;28;20228;-87
2021/06/17 04:44:40;;;;;;;5.03;4.20;;;;;;;22.12;55.44;95420.97;4993685;28;20578;-87
2021/06/17 04:47:08;;;;;;;6.72;4.63;;;;;;;22.18;54.87;95425.16;4994142;28;20231;-86
2021/06/17 04:49:35;;;;;;;7.95;4.65;;;;;;;22.25;54.69;95428.38;4995131;28;20196;-86
2021/06/17 04:52:02;;;;;;;4.75;4.35;;;;;;;22.36;54.34;95427.38;4993832;28;20227;-86
2021/06/17 04:54:29;;;;;;;4.82;4.43;;;;;;;22.44;54.00;95428.75;4993881;28;20219;-86
2021/06/17 04:56:55;;;;;;;4.82;4.32;;;;;;;22.54;53.67;95431.41;4998848;28;20210;-87
2021/06/17 04:59:23;;;;;;;6.32;4.82;;;;;;;22.63;53.25;95429.09;4993655;28;20211;-86
2021/06/17 05:01:50;;;;;;;8.93;4.38;;;;;;;22.78;55.27;95426.56;5009201;28;20207;-83
2021/06/17 05:04:17;;;;;;;5.95;4.60;;;;;;;23.07;54.39;95427.72;4993558;28;20203;-82
2021/06/17 05:06:53;;;;;;;5.53;4.32;;;;;;;23.36;53.73;95429.88;4993301;28;20663;-85
2021/06/17 05:12:05;;;;;;;7.43;4.57;;;;;;;23.74;52.46;95431.25;4991354;28;20233;-86
2021/06/17 05:14:34;;;;;;;4.78;4.38;;;;;;;23.90;51.90;95427.56;4992717;28;20215;-87
2021/06/17 05:17:00;;;;;;;5.82;4.25;;;;;;;24.03;51.57;95440.22;4996796;28;20195;-86
2021/06/17 05:19:29;;;;;;;7.75;6.00;;;;;;;24.15;51.26;95424.16;4997393;28;20199;-86
2021/06/17 05:21:55;;;;;;;26.88;24.25;;;;;;;24.29;51.22;95427.03;4997136;28;20203;-86
2021/06/17 05:24:22;;;;;;;12.13;9.38;;;;;;;24.39;50.44;95427.81;4997606;28;20195;-84
2021/06/17 05:26:48;;;;;;;9.25;7.13;;;;;;;24.48;50.40;95435.16;4997983;28;20203;-85
2021/06/17 05:29:15;;;;;;;7.95;6.55;;;;;;;24.56;50.06;95437.25;4998412;28;20690;-86
2021/06/17 05:31:43;;;;;;;7.38;5.05;;;;;;;24.65;49.83;95440.91;4997813;28;20212;-86
2021/06/17 05:34:09;;;;;;;8.48;6.20;;;;;;;24.73;49.39;95442.97;4997263;28;20231;-85
2021/06/17 05:36:36;;;;;;;7.38;4.60;;;;;;;24.75;48.96;95440.88;4995947;28;20204;-87
2021/06/17 05:39:03;;;;;;;6.70;4.30;;;;;;;24.60;49.57;95444.34;4995295;28;20207;-85
2021/06/17 05:41:29;;;;;;;6.18;4.53;;;;;;;24.49;49.87;95445.41;4986127;28;20213;-85
2021/06/17 05:43:56;;;;;;;6.15;4.07;;;;;;;24.44;49.71;95440.94;5008799;28;20638;-85
2021/06/17 05:46:22;;;;;;;6.55;4.20;;;;;;;24.41;49.72;95436.25;5007671;28;20217;-85
2021/06/17 05:48:50;;;;;;;4.72;3.83;;;;;;;24.38;50.06;95436.78;4997182;28;20203;-86
2021/06/17 05:51:17;;;;;;;5.13;3.95;;;;;;;24.39;50.03;95438.34;4992327;28;20582;-86
2021/06/17 05:53:45;;;;;;;5.38;3.58;;;;;;;24.39;50.21;95448.09;4996067;28;20687;-86
2021/06/17 05:56:11;;;;;;;4.13;3.80;;;;;;;24.32;50.43;95443.09;4996307;28;20815;-86
2021/06/17 05:58:38;;;;;;;6.80;4.00;;;;;;;24.39;50.27;95438.34;4996122;28;20210;-86
2021/06/17 06:01:04;;;;;;;4.63;4.10;;;;;;;24.37;50.79;95435.19;4995876;28;20208;-85
2021/06/17 06:03:33;;;;;;;7.55;4.07;;;;;;;24.42;50.29;95437.03;4995545;28;20230;-86
2021/06/17 06:06:01;;;;;;;4.43;4.03;;;;;;;24.45;50.34;95439.91;4992193;28;20203;-86
2021/06/17 06:08:27;;;;;;;5.93;4.10;;;;;;;24.53;50.55;95449.09;4994904;28;20199;-86
2021/06/17 06:10:54;;;;;;;6.63;4.20;;;;;;;24.44;51.39;95445.41;4997986;28;20214;-86
2021/06/17 06:13:20;;;;;;;5.32;3.72;;;;;;;24.52;50.71;95442.25;5009971;28;20234;-87
2021/06/17 06:15:47;;;;;;;4.20;3.80;;;;;;;24.56;50.35;95438.03;4994988;28;20227;-85
2021/06/17 06:18:15;;;;;;;6.47;3.65;;;;;;;24.63;50.24;95438.53;4996234;28;20230;-87
2021/06/17 06:20:49;;;;;;;6.75;4.40;;;;;;;24.68;50.16;95443.00;4996467;28;20210;-87
2021/06/17 06:23:18;;;;;;;4.28;3.63;;;;;;;24.81;49.85;95446.91;4995844;28;20594;-86
2021/06/17 06:25:47;;;;;;;4.97;3.80;;;;;;;24.90;48.97;95451.34;4994697;28;20298;-86
2021/06/17 06:28:13;;;;;;;4.38;3.30;;;;;;;24.96;48.81;95450.31;4993894;28;20263;-87
2021/06/17 06:30:40;;;;;;;5.68;3.67;;;;;;;24.95;48.50;95451.38;4994035;28;20210;-86
2021/06/17 06:33:07;;;;;;;6.53;4.38;;;;;;;25.01;48.52;95446.88;4991798;28;20227;-89
2021/06/17 06:35:33;;;;;;;6.28;3.95;;;;;;;25.06;48.73;95438.91;4994560;28;20218;-86
2021/06/17 06:38:02;;;;;;;5.50;4.00;;;;;;;25.09;48.39;95449.72;4995153;28;20722;-86
2021/06/17 06:40:33;;;;;;;5.88;4.00;;;;;;;25.13;48.43;95447.34;4995142;28;20286;-86
2021/06/17 06:43:00;;;;;;;7.93;4.60;;;;;;;25.09;48.97;95452.34;4996428;28;20215;-86
2021/06/17 06:45:30;;;;;;;7.00;4.22;;;;;;;25.22;49.24;95456.22;5006033;28;20273;-86
2021/06/17 06:47:56;;;;;;;6.55;4.50;;;;;;;25.36;48.28;95453.81;4999654;28;20222;-85
2021/06/17 06:50:23;;;;;;;4.05;3.55;;;;;;;25.42;47.70;95456.13;5000423;28;20200;-86
2021/06/17 06:52:50;;;;;;;5.35;3.60;;;;;;;25.48;47.53;95470.06;5002255;28;20310;-86
2021/06/17 06:55:18;;;;;;;5.63;3.88;;;;;;;25.40;47.65;95454.84;5001761;28;20236;-86
2021/06/17 06:57:46;;;;;;;3.70;3.40;;;;;;;25.40;47.54;95466.16;5002440;28;20705;-84
2021/06/17 07:00:15;;;;;;;6.55;4.10;;;;;;;25.44;47.69;95467.19;5001585;28;20204;-85
2021/06/17 07:02:42;;;;;;;3.92;3.55;;;;;;;25.54;48.03;95471.63;4998924;28;20223;-85
2021/06/17 07:05:10;;;;;;;5.20;3.50;;;;;;;25.64;48.20;95470.78;4998671;28;20210;-88
2021/06/17 07:07:36;;;;;;;5.20;4.00;;;;;;;25.65;48.83;95473.16;4998893;28;20730;-85
2021/06/17 07:10:03;;;;;;;4.63;3.75;;;;;;;25.68;48.98;95477.09;4999419;28;20766;-87
2021/06/17 07:12:30;;;;;;;5.55;4.25;;;;;;;25.68;47.96;95469.19;4998812;28;20231;-86
2021/06/17 07:14:59;;;;;;;6.68;4.13;;;;;;;25.64;48.52;95471.56;4996299;28;20226;-86
2021/06/17 07:17:25;;;;;;;4.38;3.70;;;;;;;25.69;48.18;95468.91;4998378;28;20214;-86
2021/06/17 07:19:54;;;;;;;4.32;3.63;;;;;;;25.73;48.11;95469.94;4998244;28;20203;-87
2021/06/17 07:22:22;;;;;;;6.10;3.90;;;;;;;25.75;48.45;95464.41;4999147;28;20262;-87
2021/06/17 07:24:49;;;;;;;6.95;3.75;;;;;;;25.92;48.37;95474.56;4996986;28;20188;-87
2021/06/17 07:27:17;;;;;;;4.38;3.83;;;;;;;26.02;47.79;95477.09;4998657;28;20195;-86
2021/06/17 07:29:43;;;;;;;5.47;4.00;;;;;;;26.06;47.47;95472.84;4999824;28;20298;-87
2021/06/17 07:32:13;;;;;;;4.93;3.47;;;;;;;26.12;47.61;95475.19;4992797;28;20278;-87
2021/06/17 07:34:42;;;;;;;5.90;3.80;;;;;;;26.17;47.35;95474.31;5001415;28;20227;-85
2021/06/17 07:37:08;;;;;;;9.85;4.47;;;;;;;26.22;47.29;95482.22;5000407;28;20590;-86
2021/06/17 07:39:35;;;;;;;4.45;4.05;;;;;;;26.30;47.30;95483.50;4999837;28;20227;-87
2021/06/17 07:42:04;;;;;;;6.30;3.88;;;;;;;26.33;46.76;95483.75;4999065;28;20666;-86
2021/06/17 07:44:30;;;;;;;7.18;3.78;;;;;;;26.34;47.17;95481.88;4996681;28;20199;-87
2021/06/17 07:49:49;;;;;;;5.68;4.38;;;;;;;26.41;46.01;95484.97;4995669;28;20196;-86
2021/06/17 07:52:17;;;;;;;6.95;3.90;;;;;;;26.55;46.39;95482.50;4997965;28;20734;-85
2021/06/17 07:54:46;;;;;;;4.88;4.40;;;;;;;26.63;46.33;95487.94;4997373;28;20297;-85
2021/06/17 07:57:12;;;;;;;4.93;3.60;;;;;;;26.71;45.39;95487.31;4999141;28;20206;-86
2021/06/17 07:59:39;;;;;;;4.30;3.83;;;;;;;26.78;45.96;95485.13;4997875;28;20717;-87
2021/06/17 08:02:05;;;;;;;5.20;3.70;;;;;;;26.84;44.95;95481.38;5050999;23;21695;-86
2021/06/17 08:04:32;;;;;;;4.10;3.70;;;;;;;26.93;44.41;95481.53;4960396;28;20252;-85
2021/06/17 08:07:07;;;;;;;5.63;3.60;;;;;;;26.95;43.87;95479.41;4973565;28;20208;-84
2021/06/17 08:09:34;;;;;;;4.18;3.60;;;;;;;27.07;44.55;95479.81;4974975;28;20208;-85
2021/06/17 08:12:03;;;;;;;4.95;3.88;;;;;;;27.21;44.21;95481.75;4971784;28;20214;-84
2021/06/17 08:14:30;;;;;;;5.28;3.97;;;;;;;27.30;44.19;95480.06;4971461;28;20307;-84
2021/06/17 08:16:58;;;;;;;5.80;4.20;;;;;;;27.35;43.83;95475.47;4971511;28;20214;-85
2021/06/17 08:19:28;;;;;;;5.20;3.90;;;;;;;27.39;43.31;95473.84;4972375;28;20786;-85
2021/06/17 08:21:56;;;;;;;4.20;3.80;;;;;;;27.57;43.92;95476.78;4973412;28;20247;-85
2021/06/17 08:24:27;;;;;;;9.65;4.20;;;;;;;27.73;43.61;95478.94;4973213;28;20202;-85
2021/06/17 08:26:53;;;;;;;8.13;4.30;;;;;;;27.81;44.81;95478.31;4974388;28;20287;-85
2021/06/17 08:29:22;;;;;;;8.43;4.55;;;;;;;27.92;43.93;95476.28;4974505;28;20236;-85
2021/06/17 08:31:53;;;;;;;4.68;4.13;;;;;;;28.08;43.87;95479.50;4975918;28;20313;-86
2021/06/17 08:34:38;;;;;;;5.78;4.28;;;;;;;28.27;43.84;95471.53;4980109;28;20266;-84
2021/06/17 08:37:08;;;;;;;5.22;3.92;;;;;;;28.46;43.80;95477.56;4973924;28;20199;-85
2021/06/17 08:39:44;;;;;;;8.25;4.38;;;;;;;28.59;42.27;95481.28;4974699;28;20228;-86
2021/06/17 08:42:13;;;;;;;5.82;3.90;;;;;;;28.63;41.88;95479.63;4974878;28;20651;-85
2021/06/17 08:44:40;;;;;;;6.13;4.30;;;;;;;28.70;41.91;95480.00;4972317;28;20201;-84
2021/06/17 08:47:09;;;;;;;5.75;4.28;;;;;;;28.87;41.93;95477.59;4974446;28;20211;-84
2021/06/17 08:49:36;;;;;;;6.95;4.05;;;;;;;28.99;41.84;95475.25;4974686;28;20204;-84
2021/06/17 08:52:03;;;;;;;7.15;4.05;;;;;;;29.14;41.81;95476.81;4973151;28;20599;-85
2021/06/17 08:54:30;;;;;;;5.05;4.00;;;;;;;29.06;40.25;95480.13;4970524;28;20216;-85
2021/06/17 08:56:59;;;;;;;4.60;4.20;;;;;;;29.04;40.98;95472.50;4976357;28;20679;-84
2021/06/17 08:59:34;;;;;;;6.78;4.18;;;;;;;29.18;41.01;95470.63;4976499;28;20280;-85
2021/06/17 09:02:01;;;;;;;6.85;4.55;;;;;;;29.30;41.13;95475.41;4975130;28;20245;-85
2021/06/17 09:04:30;;;;;;;8.18;4.50;;;;;;;29.38;41.05;95473.94;4976963;28;20200;-85
2021/06/17 09:07:03;;;;;;;4.70;4.15;;;;;;;29.37;40.35;95470.47;4975427;28;20204;-84
2021/06/17 09:09:39;;;;;;;4.40;4.00;;;;;;;29.54;39.82;95469.88;4970286;28;20200;-85
2021/06/17 09:12:10;;;;;;;6.30;4.15;;;;;;;29.52;39.84;95467.53;4972426;28;21559;-84
2021/06/17 09:14:49;;;;;;;5.57;4.15;;;;;;;29.51;39.41;95460.66;4975403;28;20255;-85
2021/06/17 09:17:19;;;;;;;5.70;4.20;;;;;;;29.68;40.39;95465.31;4973209;28;20204;-85
2021/06/17 09:19:53;;;;;;;5.78;4.20;;;;;;;29.85;40.18;95468.09;4972898;28;20196;-86
2021/06/17 09:22:24;;;;;;;4.93;4.00;;;;;;;30.01;39.53;95470.44;4970912;28;20868;-85
2021/06/17 09:24:52;;;;;;;7.15;4.63;;;;;;;30.21;39.45;95469.94;4972507;28;20565;-85
2021/06/17 09:27:30;;;;;;;5.43;3.88;;;;;;;30.31;38.68;95476.88;4973517;28;20200;-86
2021/06/17 09:30:18;;;;;;;5.20;4.15;;;;;;;30.46;38.47;95473.81;4968339;28;20214;-86
2021/06/17 09:32:50;;;;;;;7.10;3.88;;;;;;;30.46;36.77;95479.91;4976484;28;20255;-85
2021/06/17 09:35:18;;;;;;;6.88;3.70;;;;;;;30.52;37.51;95476.06;4976036;28;20224;-85
2021/06/17 09:37:45;;;;;;;7.25;4.03;;;;;;;30.55;38.64;95477.34;4973697;28;20200;-85
2021/06/17 09:40:27;;;;;;;5.53;3.70;;;;;;;30.69;37.29;95479.91;4973032;28;20204;-85
2021/06/17 09:43:12;;;;;;;5.30;3.80;;;;;;;30.88;36.75;95483.88;4973069;28;20263;-84
2021/06/17 09:45:39;;;;;;;4.70;3.83;;;;;;;30.90;36.34;95487.03;4973286;28;20200;-85
2021/06/17 09:48:28;;;;;;;4.32;3.92;;;;;;;30.98;36.13;95488.16;4978481;28;20211;-85
2021/06/17 09:50:54;;;;;;;6.05;3.63;;;;;;;31.20;36.36;95487.28;4972740;28;20236;-85
2021/06/17 09:53:24;;;;;;;3.55;3.20;;;;;;;31.28;33.82;95488.41;4972378;28;20283;-85
2021/06/17 09:55:50;;;;;;;5.13;3.67;;;;;;;31.38;34.45;95493.41;4971379;28;20224;-85
2021/06/17 09:58:37;;;;;;;5.95;3.30;;;;;;;31.39;34.53;95487.78;4972765;28;20218;-85
2021/06/17 10:01:13;;;;;;;4.07;3.67;;;;;;;31.45;33.86;95494.53;4975303;28;20192;-85
2021/06/17 10:03:40;;;;;;;5.70;3.45;;;;;;;31.56;32.50;95492.34;4974402;28;20282;-86
2021/06/17 10:06:19;;;;;;;3.42;2.90;;;;;;;31.47;31.50;95494.22;4974515;28;20208;-85
2021/06/17 10:08:45;;;;;;;5.18;3.35;;;;;;;31.49;31.50;95492.84;4975495;28;20613;-85
2021/06/17 10:11:13;;;;;;;4.03;3.17;;;;;;;31.50;30.80;95493.63;4975291;28;20200;-85
2021/06/17 10:13:41;;;;;;;4.50;3.20;;;;;;;31.57;31.69;95488.59;4975778;28;20236;-86
2021/06/17 10:16:09;;;;;;;5.30;3.13;;;;;;;31.69;31.93;95488.81;4974845;28;20228;-85
2021/06/17 10:18:36;;;;;;;5.20;3.38;;;;;;;31.72;31.34;95492.72;4975283;28;20259;-85
2021/06/17 10:21:12;;;;;;;4.25;3.35;;;;;;;31.86;31.46;95490.69;4975376;28;20204;-85
2021/06/17 10:23:38;;;;;;;2.90;2.70;;;;;;;31.94;30.12;95489.91;4975727;28;20326;-86
2021/06/17 10:26:06;;;;;;;2.70;2.50;;;;;;;32.08;29.24;95495.84;4975541;28;20200;-86
2021/06/17 10:28:50;;;;;;;4.25;2.60;;;;;;;32.14;28.28;95488.44;4975904;28;20219;-86
2021/06/17 10:31:47;;;;;;;3.92;2.88;;;;;;;32.22;27.74;95485.81;4974809;28;20215;-86
2021/06/17 10:34:37;;;;;;;4.35;2.80;;;;;;;32.33;29.65;95477.50;4975677;28;20262;-86
2021/06/17 10:37:10;;;;;;;4.20;2.65;;;;;;;32.42;28.98;95478.25;4975996;28;20200;-85
2021/06/17 10:39:37;;;;;;;3.45;2.63;;;;;;;32.48;29.15;95475.09;4975076;28;20223;-85
2021/06/17 10:42:15;;;;;;;3.25;2.80;;;;;;;32.55;29.22;95477.25;4975899;28;20340;-85
2021/06/17 10:44:52;;;;;;;4.47;2.97;;;;;;;32.64;29.84;95475.34;4974941;28;20288;-85
2021/06/17 10:48:12;;;;;;;3.72;3.17;;;;;;;32.71;28.49;95482.88;4976149;28;20203;-86
2021/06/17 10:50:53;;;;;;;5.28;3.30;;;;;;;32.66;28.25;95480.38;4975159;28;20295;-86
2021/06/17 10:53:28;;;;;;;5.53;3.22;;;;;;;32.69;28.93;95477.84;4974516;28;20235;-85
2021/06/17 10:56:01;;;;;;;3.08;2.60;;;;;;;32.75;28.33;95481.13;4975340;28;20223;-86
2021/06/17 10:58:51;;;;;;;2.72;2.47;;;;;;;32.75;26.92;95468.59;4975912;28;20635;-86
2021/06/17 11:01:27;;;;;;;3.17;2.75;;;;;;;32.79;27.45;95474.84;4974250;28;20243;-86
2021/06/17 11:04:14;;;;;;;4.13;2.95;;;;;;;32.90;27.48;95468.06;4976094;28;20759;-86
2021/06/17 11:07:25;;;;;;;2.92;2.40;;;;;;;33.06;26.97;95460.28;4975396;28;20211;-87
2021/06/17 11:10:10;;;;;;;3.10;2.42;;;;;;;33.16;27.73;95451.91;4976428;28;20224;-87
2021/06/17 11:12:46;;;;;;;3.30;2.80;;;;;;;33.26;27.19;95446.22;4974957;28;20227;-85
2021/06/17 11:15:38;;;;;;;4.55;2.60;;;;;;;33.25;26.91;95455.34;4975575;28;20323;-85
2021/06/17 11:18:05;;;;;;;2.88;2.60;;;;;;;33.34;27.17;95443.81;4986648;28;20235;-86
2021/06/17 11:20:37;;;;;;;3.55;2.60;;;;;;;33.32;26.49;95446.81;4989867;28;20207;-85
2021/06/17 11:23:04;;;;;;;3.55;2.42;;;;;;;33.27;24.64;95441.69;4988660;28;20291;-87
2021/06/17 11:25:32;;;;;;;4.13;2.40;;;;;;;33.38;25.56;95431.38;4987498;28;20204;-85
2021/06/17 11:28:00;;;;;;;4.00;2.50;;;;;;;33.38;25.19;95440.19;4987443;28;20215;-86
2021/06/17 11:30:58;;;;;;;3.72;2.70;;;;;;;33.41;23.90;95430.75;4988225;28;20196;-87
2021/06/17 11:33:44;;;;;;;4.43;2.90;;;;;;;33.54;24.73;95429.69;4987431;28;20239;-87
2021/06/17 11:36:14;;;;;;;3.03;2.58;;;;;;;33.56;26.61;95425.59;4982759;28;20227;-86
2021/06/17 11:38:40;;;;;;;4.18;2.67;;;;;;;33.49;27.25;95428.00;4975971;28;20216;-86
2021/06/17 11:41:15;;;;;;;3.25;2.78;;;;;;;33.43;26.15;95425.84;4976258;28;20204;-87
2021/06/17 11:43:44;;;;;;;3.10;2.60;;;;;;;33.50;26.82;95434.09;4984362;28;20223;-87
2021/06/17 11:46:23;;;;;;;3.53;2.70;;;;;;;33.59;26.63;95435.63;4980414;28;20268;-87
2021/06/17 11:48:51;;;;;;;5.15;2.70;;;;;;;33.58;26.40;95425.25;4976331;28;20203;-88
2021/06/17 11:51:18;;;;;;;4.50;2.75;;;;;;;33.53;25.82;95425.44;4976594;28;20263;-87
2021/06/17 11:53:49;;;;;;;2.97;2.63;;;;;;;33.58;25.98;95430.59;4976000;28;20255;-87